createdAt,value
2023-05-19T00:01:37.456Z,102019.41
2023-05-19T00:03:48.971Z,102013.13
2023-05-19T00:05:53.574Z,102024.78
2023-05-19T00:07:57.978Z,102021.09
2023-05-19T00:09:59.673Z,102018.53
2023-05-19T00:12:01.257Z,102013.00
2023-05-19T00:14:04.083Z,102025.63
2023-05-19T00:16:06.299Z,102025.63
2023-05-19T00:18:09.017Z,102009.34
2023-05-19T00:20:12.086Z,102023.78
2023-05-19T00:22:14.160Z,102025.53
2023-05-19T00:24:15.895Z,102031.78
2023-05-19T00:26:17.386Z,102024.56
2023-05-19T00:28:18.876Z,102016.47
2023-05-19T00:30:22.799Z,102022.00
2023-05-19T00:32:24.424Z,102014.66
2023-05-19T00:34:26.151Z,102020.06
2023-05-19T00:36:27.804Z,102017.34
2023-05-19T00:38:31.040Z,102020.16
2023-05-19T00:40:35.260Z,102020.06
2023-05-19T00:42:37.134Z,102016.59
2023-05-19T00:44:40.849Z,102007.56
2023-05-19T00:46:42.432Z,102012.06
2023-05-19T00:48:45.458Z,102010.13
2023-05-19T00:50:47.333Z,102001.19
2023-05-19T00:52:48.819Z,102004.75
2023-05-19T00:54:51.378Z,102006.47
2023-05-19T00:56:53.921Z,102003.63
2023-05-19T00:58:55.560Z,102005.47
2023-05-19T01:01:03.679Z,102003.75
2023-05-19T01:03:11.794Z,102010.13
2023-05-19T01:05:13.991Z,102006.59
2023-05-19T01:07:16.656Z,102003.91
2023-05-19T01:09:18.233Z,101997.63
2023-05-19T01:11:19.705Z,102003.00
2023-05-19T01:13:21.158Z,101999.34
2023-05-19T01:15:23.949Z,101996.66
2023-05-19T01:17:40.306Z,102001.06
2023-05-19T01:19:46.754Z,101993.00
2023-05-19T01:22:01.179Z,101993.84
2023-05-19T01:24:22.830Z,101974.94
2023-05-19T01:26:42.850Z,101992.03
2023-05-19T01:28:56.365Z,101985.03
2023-05-19T01:31:01.276Z,101991.28
2023-05-19T01:33:04.624Z,101984.16
2023-05-19T01:35:08.169Z,101993.13
2023-05-19T01:37:09.872Z,101983.31
2023-05-19T01:39:11.999Z,101982.34
2023-05-19T01:41:14.267Z,101985.88
2023-05-19T01:43:18.186Z,101986.72
2023-05-19T01:45:20.045Z,101980.38
2023-05-19T01:47:22.259Z,101981.34
2023-05-19T01:49:23.740Z,101978.78
2023-05-19T01:51:25.253Z,101981.47
2023-05-19T01:53:26.790Z,101972.56
2023-05-19T01:55:28.326Z,101981.47
2023-05-19T01:57:51.085Z,101984.16
2023-05-19T01:59:59.170Z,101979.75
2023-05-19T02:02:05.395Z,101979.75
2023-05-19T02:04:31.575Z,101985.03
2023-05-19T02:06:33.157Z,101982.34
2023-05-19T02:08:42.167Z,101982.34
2023-05-19T02:10:45.818Z,101988.56
2023-05-19T02:12:50.499Z,101982.34
2023-05-19T02:15:11.780Z,101985.03
2023-05-19T02:17:14.631Z,101989.56
2023-05-19T02:19:24.161Z,101981.47
2023-05-19T02:21:25.929Z,101977.94
2023-05-19T02:23:27.587Z,101979.75
2023-05-19T02:25:29.092Z,101979.75
2023-05-19T02:27:30.937Z,101976.22
2023-05-19T02:29:32.407Z,101982.44
2023-05-19T02:31:34.168Z,101982.34
2023-05-19T02:33:36.394Z,101978.78
2023-05-19T02:35:37.858Z,101980.63
2023-05-19T02:37:39.948Z,101983.19
2023-05-19T02:39:41.885Z,101975.09
2023-05-19T02:41:43.387Z,101974.28
2023-05-19T02:43:44.977Z,101979.66
2023-05-19T02:45:46.609Z,101977.81
2023-05-19T02:47:48.216Z,101978.66
2023-05-19T02:49:49.709Z,101976.97
2023-05-19T02:51:51.174Z,101976.97
2023-05-19T02:53:52.772Z,101971.56
2023-05-19T02:55:54.339Z,101969.72
2023-05-19T02:57:55.877Z,101968.75
2023-05-19T02:59:57.519Z,101967.78
2023-05-19T03:02:00.337Z,101965.94
2023-05-19T03:04:02.304Z,101964.22
2023-05-19T03:06:04.853Z,101966.91
2023-05-19T03:08:06.908Z,101967.88
2023-05-19T03:10:08.851Z,101962.50
2023-05-19T03:12:10.412Z,101964.34
2023-05-19T03:14:14.936Z,101960.81
2023-05-19T03:16:16.694Z,101965.31
2023-05-19T03:18:20.472Z,101963.59
2023-05-19T03:20:22.127Z,101973.41
2023-05-19T03:22:23.698Z,101969.84
2023-05-19T03:24:25.355Z,101974.28
2023-05-19T03:26:29.344Z,101971.56
2023-05-19T03:28:30.797Z,101973.41
2023-05-19T03:30:32.571Z,101974.13
2023-05-19T03:32:38.050Z,101971.56
2023-05-19T03:34:39.651Z,101969.84
2023-05-19T03:36:41.248Z,101970.69
2023-05-19T03:38:42.710Z,101968.13
2023-05-19T03:40:45.084Z,101968.13
2023-05-19T03:42:46.687Z,101960.91
2023-05-19T03:44:48.392Z,101971.66
2023-05-19T03:46:50.139Z,101965.44
2023-05-19T03:48:51.862Z,101968.97
2023-05-19T03:50:54.269Z,101972.56
2023-05-19T03:52:55.916Z,101956.22
2023-05-19T03:54:57.788Z,101977.94
2023-05-19T03:56:59.245Z,101975.25
2023-05-19T03:59:00.769Z,101970.81
2023-05-19T04:01:02.301Z,101971.66
2023-05-19T04:03:03.862Z,101970.81
2023-05-19T04:05:05.475Z,101977.16
2023-05-19T04:07:07.255Z,101969.91
2023-05-19T04:09:13.088Z,101972.75
2023-05-19T04:11:14.641Z,101980.69
2023-05-19T04:13:16.112Z,101976.31
2023-05-19T04:15:17.917Z,101978.13
2023-05-19T04:17:19.408Z,101976.31
2023-05-19T04:19:20.966Z,101975.31
2023-05-19T04:21:22.497Z,101981.59
2023-05-19T04:23:23.999Z,101984.28
2023-05-19T04:25:25.555Z,101979.84
2023-05-19T04:27:29.020Z,101979.84
2023-05-19T04:29:30.600Z,101976.31
2023-05-19T04:31:34.305Z,101982.66
2023-05-19T04:33:36.215Z,101976.41
2023-05-19T04:35:38.278Z,101980.81
2023-05-19T04:37:40.504Z,101979.00
2023-05-19T04:39:45.469Z,101979.84
2023-05-19T04:41:47.066Z,101980.69
2023-05-19T04:43:49.998Z,101977.16
2023-05-19T04:45:51.596Z,101978.00
2023-05-19T04:47:57.728Z,101977.16
2023-05-19T04:50:00.832Z,101985.22
2023-05-19T04:52:02.443Z,101982.53
2023-05-19T04:54:04.067Z,101987.09
2023-05-19T04:56:05.829Z,101995.16
2023-05-19T04:58:07.548Z,101994.28
2023-05-19T05:00:12.687Z,101992.56
2023-05-19T05:02:14.259Z,101996.13
2023-05-19T05:04:15.818Z,101996.97
2023-05-19T05:06:17.613Z,101996.13
2023-05-19T05:08:24.855Z,101997.84
2023-05-19T05:10:26.419Z,102001.41
2023-05-19T05:12:28.103Z,101996.84
2023-05-19T05:14:29.666Z,102004.94
2023-05-19T05:16:32.146Z,102004.09
2023-05-19T05:18:34.550Z,102007.75
2023-05-19T05:20:36.276Z,102002.38
2023-05-19T05:22:38.773Z,102005.06
2023-05-19T05:24:40.646Z,102006.03
2023-05-19T05:26:42.899Z,102009.59
2023-05-19T05:28:44.443Z,102010.56
2023-05-19T05:30:46.503Z,102012.28
2023-05-19T05:32:48.205Z,102010.44
2023-05-19T05:34:50.824Z,102008.63
2023-05-19T05:36:52.283Z,102005.94
2023-05-19T05:38:53.794Z,102011.31
2023-05-19T05:40:55.248Z,102015.00
2023-05-19T05:42:56.850Z,102019.50
2023-05-19T05:44:58.402Z,102015.09
2023-05-19T05:47:00.043Z,102020.47
2023-05-19T05:49:01.705Z,102024.16
2023-05-19T05:51:03.382Z,102017.06
2023-05-19T05:53:07.416Z,102026.84
2023-05-19T05:55:09.219Z,102022.31
2023-05-19T05:57:11.094Z,102025.13
2023-05-19T05:59:12.567Z,102019.63
2023-05-19T06:01:16.736Z,102025.00
2023-05-19T06:03:18.580Z,102023.28
2023-05-19T06:05:20.430Z,102026.97
2023-05-19T06:07:21.935Z,102028.81
2023-05-19T06:09:23.487Z,102028.81
2023-05-19T06:11:25.092Z,102029.66
2023-05-19T06:13:26.808Z,101997.06
2023-05-19T06:15:28.459Z,102030.63
2023-05-19T06:17:30.077Z,102037.00
2023-05-19T06:19:31.895Z,102033.31
2023-05-19T06:21:33.353Z,102037.84
2023-05-19T06:23:34.936Z,102035.16
2023-05-19T06:25:36.620Z,102035.03
2023-05-19T06:27:38.201Z,102043.13
2023-05-19T06:29:39.746Z,102036.00
2023-05-19T06:31:41.262Z,102035.16
2023-05-19T06:33:42.795Z,102040.56
2023-05-19T06:35:44.310Z,102034.31
2023-05-19T06:37:46.039Z,102026.25
2023-05-19T06:39:47.543Z,102031.63
2023-05-19T06:41:49.266Z,102012.72
2023-05-19T06:43:50.825Z,102030.75
2023-05-19T06:45:52.405Z,102024.53
2023-05-19T06:47:54.753Z,102033.31
2023-05-19T06:49:57.074Z,102029.78
2023-05-19T06:51:58.705Z,102026.13
2023-05-19T06:54:00.197Z,102024.25
2023-05-19T06:56:01.737Z,102014.47
2023-05-19T06:58:03.240Z,102019.00
2023-05-19T07:00:05.958Z,102013.63
2023-05-19T07:02:07.732Z,102017.06
2023-05-19T07:04:09.364Z,102022.53
2023-05-19T07:06:11.067Z,102015.34
2023-05-19T07:08:12.515Z,102009.94
2023-05-19T07:10:14.010Z,102006.28
2023-05-19T07:12:15.942Z,102020.47
2023-05-19T07:14:17.382Z,102017.78
2023-05-19T07:16:18.920Z,102019.50
2023-05-19T07:18:20.620Z,102008.63
2023-05-19T07:20:22.178Z,102014.00
2023-05-19T07:22:24.216Z,102013.00
2023-05-19T07:24:27.487Z,102011.22
2023-05-19T07:26:29.292Z,102010.25
2023-05-19T07:28:30.907Z,102011.09
2023-05-19T07:30:32.607Z,102010.97
2023-05-19T07:32:34.257Z,102005.59
2023-05-19T07:34:35.802Z,102006.47
2023-05-19T07:36:37.303Z,101998.25
2023-05-19T07:38:38.990Z,102003.50
2023-05-19T07:40:40.791Z,102003.41
2023-05-19T07:42:42.410Z,102005.00
2023-05-19T07:44:43.910Z,102006.72
2023-05-19T07:46:45.431Z,102003.00
2023-05-19T07:48:46.873Z,102003.00
2023-05-19T07:50:52.128Z,102005.63
2023-05-19T07:52:53.931Z,102003.75
2023-05-19T07:54:55.729Z,101997.53
2023-05-19T07:56:57.220Z,101997.41
2023-05-19T07:58:58.678Z,101997.41
2023-05-19T08:01:00.426Z,101989.19
2023-05-19T08:03:02.364Z,101997.19
2023-05-19T08:05:04.626Z,101995.31
2023-05-19T08:07:06.345Z,101987.25
2023-05-19T08:09:07.949Z,101990.78
2023-05-19T08:11:09.627Z,101995.19
2023-05-19T08:13:11.337Z,101984.41
2023-05-19T08:15:13.014Z,101988.00
2023-05-19T08:17:14.577Z,101987.84
2023-05-19T08:19:16.078Z,101988.59
2023-05-19T08:21:17.678Z,101984.19
2023-05-19T08:23:19.114Z,101984.19
2023-05-19T08:25:20.573Z,101986.75
2023-05-19T08:27:22.324Z,101991.28
2023-05-19T08:29:23.797Z,101984.06
2023-05-19T08:31:25.585Z,101989.31
2023-05-19T08:33:27.097Z,101986.53
2023-05-19T08:35:28.626Z,101984.66
2023-05-19T08:37:32.045Z,101987.38
2023-05-19T08:39:35.634Z,101977.44
2023-05-19T08:41:37.535Z,101981.84
2023-05-19T08:43:39.892Z,101973.75
2023-05-19T08:45:48.150Z,101966.66
2023-05-19T08:47:51.033Z,101966.56
2023-05-19T08:49:53.191Z,101960.19
2023-05-19T08:52:00.330Z,101960.91
2023-05-19T08:54:09.113Z,101954.66
2023-05-19T08:56:13.322Z,101960.91
2023-05-19T08:58:16.542Z,101921.13
2023-05-19T09:00:18.435Z,101950.03
2023-05-19T09:02:22.100Z,101947.31
2023-05-19T09:04:25.598Z,101949.88
2023-05-19T09:06:28.245Z,101956.00
2023-05-19T09:08:30.009Z,101948.78
2023-05-19T09:10:31.573Z,101948.78
2023-05-19T09:12:33.447Z,101947.06
2023-05-19T09:14:35.129Z,101938.00
2023-05-19T09:16:36.878Z,101933.44
2023-05-19T09:18:39.539Z,101930.66
2023-05-19T09:20:42.535Z,101931.50
2023-05-19T09:22:47.188Z,101928.81
2023-05-19T09:24:49.339Z,101932.38
2023-05-19T09:26:50.840Z,101931.38
2023-05-19T09:28:52.361Z,101926.84
2023-05-19T09:31:06.870Z,101917.88
2023-05-19T09:33:10.117Z,101917.03
2023-05-19T09:35:13.035Z,101915.19
2023-05-19T09:37:14.552Z,101917.03
2023-05-19T09:39:16.509Z,101913.38
2023-05-19T09:41:18.240Z,101915.19
2023-05-19T09:43:21.545Z,101915.94
2023-05-19T09:45:23.042Z,101913.25
2023-05-19T09:47:24.531Z,101910.53
2023-05-19T09:49:29.718Z,101918.63
2023-05-19T09:51:32.005Z,101906.88
2023-05-19T09:53:34.114Z,101913.97
2023-05-19T09:55:35.617Z,101900.50
2023-05-19T09:57:38.155Z,101902.31
2023-05-19T09:59:39.806Z,101903.19
2023-05-19T10:01:43.942Z,101911.28
2023-05-19T10:03:45.635Z,101912.25
2023-05-19T10:05:47.650Z,101909.56
2023-05-19T10:07:51.453Z,101911.28
2023-05-19T10:09:55.395Z,101910.41
2023-05-19T10:11:58.261Z,101907.72
2023-05-19T10:14:00.095Z,101905.91
2023-05-19T10:16:01.980Z,101900.38
2023-05-19T10:18:03.963Z,101903.91
2023-05-19T10:20:07.218Z,101903.06
2023-05-19T10:22:08.783Z,101902.09
2023-05-19T10:24:11.546Z,101899.38
2023-05-19T10:26:15.005Z,101906.50
2023-05-19T10:28:17.710Z,101899.38
2023-05-19T10:30:21.796Z,101894.97
2023-05-19T10:32:25.768Z,101895.81
2023-05-19T10:34:51.472Z,101895.81
2023-05-19T10:37:02.010Z,101896.84
2023-05-19T10:39:12.693Z,101894.00
2023-05-19T10:41:32.875Z,101891.31
2023-05-19T10:43:47.087Z,101888.59
2023-05-19T10:45:51.697Z,101892.88
2023-05-19T10:47:54.361Z,101890.31
2023-05-19T10:49:56.238Z,101895.72
2023-05-19T10:51:57.801Z,101894.75
2023-05-19T10:54:02.875Z,101893.03
2023-05-19T10:56:04.667Z,101891.16
2023-05-19T10:58:06.229Z,101882.94
2023-05-19T11:00:27.160Z,101884.66
2023-05-19T11:02:39.851Z,101881.97
2023-05-19T11:04:51.123Z,101889.94
2023-05-19T11:06:53.547Z,101896.19
2023-05-19T11:08:55.020Z,101888.09
2023-05-19T11:10:56.955Z,101872.66
2023-05-19T11:12:58.683Z,101868.25
2023-05-19T11:15:00.196Z,101879.03
2023-05-19T11:17:01.715Z,101869.09
2023-05-19T11:19:06.055Z,101872.66
2023-05-19T11:21:07.704Z,101868.38
2023-05-19T11:23:10.228Z,101866.53
2023-05-19T11:25:11.904Z,101861.00
2023-05-19T11:27:40.160Z,101855.50
2023-05-19T11:29:42.668Z,101857.34
2023-05-19T11:31:44.541Z,101853.66
2023-05-19T11:33:46.210Z,101859.78
2023-05-19T11:35:49.568Z,101854.25
2023-05-19T11:37:54.152Z,101847.88
2023-05-19T11:39:55.764Z,101843.34
2023-05-19T11:41:57.261Z,101843.19
2023-05-19T11:43:58.839Z,101842.22
2023-05-19T11:46:01.183Z,101845.91
2023-05-19T11:48:06.413Z,101845.69
2023-05-19T11:50:11.468Z,101839.44
2023-05-19T11:52:13.249Z,101834.91
2023-05-19T11:54:14.897Z,101835.88
2023-05-19T11:56:16.456Z,101835.53
2023-05-19T11:58:18.023Z,101833.34
2023-05-19T12:00:22.249Z,101828.34
2023-05-19T12:02:28.112Z,101825.41
2023-05-19T12:04:32.830Z,101819.44
2023-05-19T12:06:34.396Z,101819.66
2023-05-19T12:08:36.604Z,101815.31
2023-05-19T12:10:38.951Z,101824.50
2023-05-19T12:12:40.445Z,101814.09
2023-05-19T12:14:42.024Z,101812.66
2023-05-19T12:16:43.630Z,101809.13
2023-05-19T12:18:45.222Z,101811.66
2023-05-19T12:20:46.923Z,101804.31
2023-05-19T12:22:48.604Z,101814.50
2023-05-19T12:24:50.805Z,101803.84
2023-05-19T12:26:52.280Z,101807.91
2023-05-19T12:28:53.828Z,101803.63
2023-05-19T12:30:58.351Z,101799.94
2023-05-19T12:33:01.386Z,101813.66
2023-05-19T12:35:04.730Z,101809.25
2023-05-19T12:37:06.452Z,101810.59
2023-05-19T12:39:08.279Z,101796.41
2023-05-19T12:41:12.791Z,101796.81
2023-05-19T12:43:22.113Z,101794.34
2023-05-19T12:45:25.655Z,101794.97
2023-05-19T12:47:32.147Z,101792.41
2023-05-19T12:49:34.052Z,101782.00
2023-05-19T12:51:36.899Z,101793.97
2023-05-19T12:53:38.673Z,101798.00
2023-05-19T12:55:43.897Z,101790.19
2023-05-19T12:57:49.905Z,101780.25
2023-05-19T12:59:52.045Z,101787.59
2023-05-19T13:01:57.319Z,101781.72
2023-05-19T13:03:59.250Z,101780.97
2023-05-19T13:06:00.935Z,101784.75
2023-05-19T13:08:05.054Z,101775.09
2023-05-19T13:10:06.840Z,101771.16
2023-05-19T13:12:08.502Z,101764.81
2023-05-19T13:14:10.129Z,101774.09
2023-05-19T13:16:11.622Z,101770.88
2023-05-19T13:18:13.745Z,101777.44
2023-05-19T13:20:15.290Z,101774.25
2023-05-19T13:22:17.105Z,101774.72
2023-05-19T13:24:18.762Z,101782.53
2023-05-19T13:26:21.396Z,101776.66
2023-05-19T13:28:23.327Z,101777.88
2023-05-19T13:30:25.835Z,101766.38
2023-05-19T13:32:27.304Z,101761.00
2023-05-19T13:34:28.979Z,101765.00
2023-05-19T13:36:30.505Z,101767.91
2023-05-19T13:38:32.154Z,101763.38
2023-05-19T13:40:35.116Z,101760.72
2023-05-19T13:42:36.949Z,101758.94
2023-05-19T13:44:38.616Z,101758.00
2023-05-19T13:46:45.577Z,101757.56
2023-05-19T13:48:48.139Z,101744.75
2023-05-19T13:50:50.895Z,101751.22
2023-05-19T13:52:52.412Z,101750.38
2023-05-19T13:54:56.824Z,101739.97
2023-05-19T13:56:58.394Z,101746.44
2023-05-19T13:59:00.044Z,101751.38
2023-05-19T14:01:01.520Z,101749.22
2023-05-19T14:03:03.458Z,101741.28
2023-05-19T14:05:06.109Z,101750.09
2023-05-19T14:07:08.165Z,101743.00
2023-05-19T14:09:09.854Z,101739.81
2023-05-19T14:11:17.341Z,101745.16
2023-05-19T14:13:32.017Z,101742.47
2023-05-19T14:15:37.572Z,101735.72
2023-05-19T14:17:39.148Z,101736.69
2023-05-19T14:19:40.847Z,101734.25
2023-05-19T14:21:42.452Z,101726.28
2023-05-19T14:23:44.241Z,101735.22
2023-05-19T14:25:46.116Z,101738.03
2023-05-19T14:27:47.666Z,101739.72
2023-05-19T14:29:49.626Z,101738.22
2023-05-19T14:31:51.455Z,101734.47
2023-05-19T14:33:53.065Z,101734.75
2023-05-19T14:35:55.453Z,101729.09
2023-05-19T14:37:56.970Z,101725.75
2023-05-19T14:39:58.690Z,101727.69
2023-05-19T14:42:00.182Z,101731.44
2023-05-19T14:44:01.875Z,101723.75
2023-05-19T14:46:03.480Z,101727.22
2023-05-19T14:48:05.480Z,101722.91
2023-05-19T14:50:07.447Z,101715.41
2023-05-19T14:52:09.046Z,101718.72
2023-05-19T14:54:10.598Z,101707.03
2023-05-19T14:56:12.126Z,101711.31
2023-05-19T14:58:27.558Z,101712.41
2023-05-19T15:00:30.881Z,101705.22
2023-05-19T15:02:32.461Z,101709.59
2023-05-19T15:04:35.917Z,101707.56
2023-05-19T15:06:37.494Z,101710.88
2023-05-19T15:08:40.787Z,101710.25
2023-05-19T15:10:42.390Z,101700.47
2023-05-19T15:12:43.953Z,101707.56
2023-05-19T15:14:45.738Z,101705.97
2023-05-19T15:16:47.364Z,101695.09
2023-05-19T15:18:49.093Z,101706.66
2023-05-19T15:20:50.641Z,101703.56
2023-05-19T15:22:52.164Z,101709.88
2023-05-19T15:24:53.933Z,101699.34
2023-05-19T15:26:55.644Z,101707.19
2023-05-19T15:28:57.110Z,101709.28
2023-05-19T15:30:58.653Z,101696.53
2023-05-19T15:33:00.292Z,101690.19
2023-05-19T15:35:01.853Z,101693.13
2023-05-19T15:37:03.613Z,101697.03
2023-05-19T15:39:06.428Z,101700.00
2023-05-19T15:41:08.573Z,101690.25
2023-05-19T15:43:10.038Z,101695.50
2023-05-19T15:45:11.891Z,101700.66
2023-05-19T15:47:13.731Z,101689.59
2023-05-19T15:49:15.280Z,101697.66
2023-05-19T15:51:17.052Z,101700.13
2023-05-19T15:53:20.140Z,101687.03
2023-05-19T15:55:21.687Z,101693.69
2023-05-19T15:57:23.395Z,101688.66
2023-05-19T15:59:24.834Z,101691.38
2023-05-19T16:01:26.649Z,101680.34
2023-05-19T16:03:29.789Z,101681.66
2023-05-19T16:05:31.391Z,101676.63
2023-05-19T16:07:32.964Z,101692.50
2023-05-19T16:09:34.690Z,101662.69
2023-05-19T16:11:36.178Z,101682.09
2023-05-19T16:13:37.679Z,101680.78
2023-05-19T16:15:39.134Z,101676.28
2023-05-19T16:17:41.177Z,101683.50
2023-05-19T16:19:42.876Z,101670.94
2023-05-19T16:21:44.355Z,101678.38
2023-05-19T16:23:46.308Z,101669.41
2023-05-19T16:25:48.316Z,101672.31
2023-05-19T16:27:50.065Z,101674.16
2023-05-19T16:29:51.752Z,101674.69
2023-05-19T16:31:53.318Z,101673.41
2023-05-19T16:33:54.781Z,101663.97
2023-05-19T16:35:57.908Z,101666.78
2023-05-19T16:37:59.485Z,101667.19
2023-05-19T16:40:00.960Z,101651.34
2023-05-19T16:42:02.948Z,101660.13
2023-05-19T16:44:04.522Z,101664.63
2023-05-19T16:46:06.429Z,101661.41
2023-05-19T16:48:07.997Z,101660.34
2023-05-19T16:50:09.873Z,101654.44
2023-05-19T16:52:11.458Z,101651.97
2023-05-19T16:54:12.949Z,101644.28
2023-05-19T16:56:14.413Z,101650.28
2023-05-19T16:58:16.098Z,101652.19
2023-05-19T17:00:17.722Z,101650.47
2023-05-19T17:02:19.313Z,101662.47
2023-05-19T17:04:20.965Z,101661.31
2023-05-19T17:06:22.460Z,101659.47
2023-05-19T17:08:23.912Z,101665.03
2023-05-19T17:10:25.388Z,101670.50
2023-05-19T17:12:26.884Z,101667.41
2023-05-19T17:14:28.497Z,101660.13
2023-05-19T17:16:29.970Z,101652.84
2023-05-19T17:18:31.537Z,101660.75
2023-05-19T17:20:33.236Z,101662.28
2023-05-19T17:22:34.929Z,101660.34
2023-05-19T17:24:36.533Z,101662.28
2023-05-19T17:26:38.049Z,101660.13
2023-05-19T17:28:39.549Z,101669.88
2023-05-19T17:30:41.330Z,101657.88
2023-05-19T17:32:43.119Z,101653.50
2023-05-19T17:34:44.701Z,101666.81
2023-05-19T17:36:46.335Z,101664.75
2023-05-19T17:38:47.808Z,101663.03
2023-05-19T17:40:49.299Z,101671.84
2023-05-19T17:42:50.943Z,101666.56
2023-05-19T17:44:52.386Z,101673.00
2023-05-19T17:46:53.919Z,101667.44
2023-05-19T17:48:55.661Z,101665.09
2023-05-19T17:50:57.344Z,101643.53
2023-05-19T17:52:59.000Z,101659.41
2023-05-19T17:55:00.673Z,101658.97
2023-05-19T17:57:03.438Z,101662.28
2023-05-19T17:59:05.170Z,101657.88
2023-05-19T18:01:06.902Z,101664.22
2023-05-19T18:03:08.640Z,101663.25
2023-05-19T18:05:10.574Z,101664.84
2023-05-19T18:07:12.820Z,101660.88
2023-05-19T18:09:16.576Z,101657.88
2023-05-19T18:11:18.304Z,101663.03
2023-05-19T18:13:19.833Z,101665.84
2023-05-19T18:15:21.634Z,101662.94
2023-05-19T18:17:23.079Z,101668.41
2023-05-19T18:19:24.676Z,101664.84
2023-05-19T18:21:26.922Z,101664.53
2023-05-19T18:23:28.432Z,101667.66
2023-05-19T18:25:29.985Z,101664.84
2023-05-19T18:27:33.295Z,101666.78
2023-05-19T18:29:34.851Z,101674.94
2023-05-19T18:31:36.514Z,101671.16
2023-05-19T18:33:38.277Z,101670.41
2023-05-19T18:35:39.729Z,101674.50
2023-05-19T18:37:41.307Z,101680.72
2023-05-19T18:39:42.805Z,101678.25
2023-05-19T18:41:44.376Z,101672.69
2023-05-19T18:43:46.119Z,101680.72
2023-05-19T18:45:48.043Z,101669.38
2023-05-19T18:47:49.624Z,101675.56
2023-05-19T18:49:51.218Z,101681.88
2023-05-19T18:51:52.762Z,101680.09
2023-05-19T18:53:54.321Z,101680.81
2023-05-19T18:55:55.773Z,101682.00
2023-05-19T18:57:57.249Z,101681.25
2023-05-19T18:59:58.755Z,101685.66
2023-05-19T19:02:00.278Z,101677.94
2023-05-19T19:04:02.194Z,101682.22
2023-05-19T19:06:03.952Z,101684.47
2023-05-19T19:08:05.684Z,101685.84
2023-05-19T19:10:07.570Z,101687.38
2023-05-19T19:12:09.308Z,101696.66
2023-05-19T19:14:11.015Z,101683.03
2023-05-19T19:16:12.642Z,101692.06
2023-05-19T19:18:14.313Z,101692.56
2023-05-19T19:20:15.966Z,101697.53
2023-05-19T19:22:17.434Z,101690.94
2023-05-19T19:24:18.993Z,101701.22
2023-05-19T19:26:21.792Z,101681.19
2023-05-19T19:28:23.713Z,101694.56
2023-05-19T19:30:28.160Z,101694.66
2023-05-19T19:32:31.361Z,101694.44
2023-05-19T19:34:33.536Z,101700.44
2023-05-19T19:36:35.893Z,101701.22
2023-05-19T19:38:37.629Z,101702.94
2023-05-19T19:40:39.224Z,101709.25
2023-05-19T19:42:40.810Z,101708.16
2023-05-19T19:44:42.258Z,101709.88
2023-05-19T19:46:43.851Z,101714.16
2023-05-19T19:48:45.588Z,101712.31
2023-05-19T19:50:52.758Z,101716.56
2023-05-19T19:52:54.312Z,101720.19
2023-05-19T19:54:55.870Z,101717.28
2023-05-19T19:56:57.466Z,101717.41
2023-05-19T19:58:59.554Z,101722.75
2023-05-19T20:01:02.497Z,101721.69
2023-05-19T20:03:05.762Z,101723.28
2023-05-19T20:05:07.828Z,101728.75
2023-05-19T20:07:09.314Z,101727.56
2023-05-19T20:09:10.906Z,101731.13
2023-05-19T20:11:12.356Z,101734.53
2023-05-19T20:13:17.020Z,101734.44
2023-05-19T20:15:18.660Z,101737.00
2023-05-19T20:17:20.298Z,101737.75
2023-05-19T20:19:21.930Z,101738.59
2023-05-19T20:21:23.572Z,101736.78
2023-05-19T20:23:25.034Z,101736.03
2023-05-19T20:25:27.077Z,101735.06
2023-05-19T20:27:28.589Z,101743.97
2023-05-19T20:29:30.134Z,101750.94
2023-05-19T20:31:31.918Z,101745.22
2023-05-19T20:33:33.455Z,101749.50
2023-05-19T20:35:35.148Z,101744.25
2023-05-19T20:37:37.192Z,101750.25
2023-05-19T20:39:38.720Z,101750.13
2023-05-19T20:41:40.320Z,101753.44
2023-05-19T20:43:41.921Z,101747.22
2023-05-19T20:45:44.143Z,101757.00
2023-05-19T20:47:46.303Z,101757.09
2023-05-19T20:49:48.367Z,101744.56
2023-05-19T20:51:49.873Z,101748.19
2023-05-19T20:53:51.645Z,101749.03
2023-05-19T20:55:53.336Z,101754.31
2023-05-19T20:57:54.821Z,101748.06
2023-05-19T20:59:56.437Z,101744.56
2023-05-19T21:01:57.982Z,101747.13
2023-05-19T21:04:01.005Z,101748.97
2023-05-19T21:06:03.090Z,101745.91
2023-05-19T21:08:04.680Z,101744.09
2023-05-19T21:10:07.000Z,101743.97
2023-05-19T21:12:08.878Z,101757.50
2023-05-19T21:14:10.480Z,101750.44
2023-05-19T21:16:12.099Z,101756.00
2023-05-19T21:18:13.926Z,101754.53
2023-05-19T21:20:16.592Z,101759.69
2023-05-19T21:22:18.058Z,101752.34
2023-05-19T21:24:19.572Z,101751.84
2023-05-19T21:26:22.040Z,101752.81
2023-05-19T21:28:23.571Z,101763.69
2023-05-19T21:30:25.410Z,101759.28
2023-05-19T21:32:27.810Z,101754.25
2023-05-19T21:34:29.329Z,101753.53
2023-05-19T21:36:31.676Z,101757.06
2023-05-19T21:38:33.127Z,101759.72
2023-05-19T21:40:34.895Z,101765.22
2023-05-19T21:42:37.260Z,101753.72
2023-05-19T21:44:38.937Z,101747.59
2023-05-19T21:46:40.463Z,101751.25
2023-05-19T21:48:41.939Z,101749.66
2023-05-19T21:50:43.491Z,101755.03
2023-05-19T21:52:45.216Z,101758.59
2023-05-19T21:54:47.885Z,101746.88
2023-05-19T21:56:49.458Z,101746.97
2023-05-19T21:58:50.972Z,101755.91
2023-05-19T22:00:54.354Z,101758.59
2023-05-19T22:02:55.948Z,101752.25
2023-05-19T22:04:57.536Z,101755.03
2023-05-19T22:06:59.022Z,101746.59
2023-05-19T22:09:02.277Z,101742.19
2023-05-19T22:11:03.824Z,101749.47
2023-05-19T22:13:05.521Z,101745.72
2023-05-19T22:15:07.499Z,101741.44
2023-05-19T22:17:09.164Z,101746.59
2023-05-19T22:19:11.488Z,101748.41
2023-05-19T22:21:13.047Z,101745.63
2023-05-19T22:23:14.630Z,101751.97
2023-05-19T22:25:16.615Z,101751.09
2023-05-19T22:27:18.223Z,101747.34
2023-05-19T22:29:20.180Z,101750.13
2023-05-19T22:31:21.702Z,101742.31
2023-05-19T22:33:23.302Z,101745.06
2023-05-19T22:35:24.940Z,101746.28
2023-05-19T22:37:27.194Z,101747.13
2023-05-19T22:39:28.793Z,101743.69
2023-05-19T22:41:30.339Z,101755.38
2023-05-19T22:43:32.006Z,101737.34
2023-05-19T22:45:34.207Z,101735.34
2023-05-19T22:47:36.245Z,101743.47
2023-05-19T22:49:37.754Z,101734.34
2023-05-19T22:51:39.736Z,101734.25
2023-05-19T22:53:42.530Z,101730.59
2023-05-19T22:55:44.041Z,101735.09
2023-05-19T22:57:45.705Z,101735.09
2023-05-19T22:59:47.294Z,101743.16
2023-05-19T23:01:48.815Z,101735.34
2023-05-19T23:03:50.439Z,101733.63
2023-05-19T23:05:51.981Z,101733.50
2023-05-19T23:07:53.541Z,101732.53
2023-05-19T23:09:55.243Z,101734.25
2023-05-19T23:11:56.752Z,101733.28
2023-05-19T23:13:58.397Z,101728.00
2023-05-19T23:15:59.892Z,101730.19
2023-05-19T23:18:06.980Z,101723.84
2023-05-19T23:20:09.139Z,101732.66